Time;durP1;ratioP1;P1;durP2;ratioP2;P2;SDS_P1;SDS_P2;PMS_P1;PMS_P2;Temp;Humidity;BMP_temperature;BMP_pressure;BME280_temperature;BME280_humidity;BME280_pressure;Samples;Min_cycle;Max_cycle;Signal;HPM_P1;HPM_P2
2020/12/07 00:01:14;;;;;;;3.75;2.83;;;205.30;1843.20;;;;;;5071021;28;20028;-57
2020/12/07 00:03:39;;;;;;;4.43;2.70;;;205.40;1843.20;;;;;;5074044;28;20032;-57
2020/12/07 00:06:05;;;;;;;8.38;2.75;;;205.40;1843.20;;;;;;5073524;28;20052;-57
2020/12/07 00:08:31;;;;;;;4.75;2.40;;;205.50;1817.60;;;;;;5071892;28;20024;-57
2020/12/07 00:10:57;;;;;;;3.67;1.98;;;205.40;1817.60;;;;;;5071552;28;20117;-56
2020/12/07 00:13:22;;;;;;;4.03;2.53;;;205.40;1817.60;;;;;;5072425;28;20016;-57
2020/12/07 00:15:48;;;;;;;4.72;2.72;;;205.50;1817.60;;;;;;5072141;28;20474;-57
2020/12/07 00:18:14;;;;;;;3.58;1.98;;;205.40;1817.60;;;;;;5071928;28;20474;-57
2020/12/07 00:20:39;;;;;;;4.63;2.58;;;205.40;1817.60;;;;;;5072615;28;20450;-57
2020/12/07 00:23:06;;;;;;;3.92;2.28;;;205.40;1817.60;;;;;;5071467;28;20097;-54
2020/12/07 00:25:32;;;;;;;4.75;2.97;;;205.40;1817.60;;;;;;5052541;28;20383;-54
2020/12/07 00:27:58;;;;;;;4.28;2.85;;;205.40;1868.80;;;;;;5073349;28;20039;-53
2020/12/07 00:30:23;;;;;;;3.17;2.10;;;205.60;1894.40;;;;;;5073158;28;20518;-54
2020/12/07 00:32:49;;;;;;;3.53;2.47;;;205.60;1817.60;;;;;;5072905;28;20035;-53
2020/12/07 00:35:15;;;;;;;4.78;2.42;;;205.70;1817.60;;;;;;5073037;28;20114;-53
2020/12/07 00:37:40;;;;;;;4.50;2.83;;;205.70;1817.60;;;;;;5073007;28;20103;-53
2020/12/07 00:40:06;;;;;;;5.47;2.30;;;205.70;1817.60;;;;;;5072860;28;20024;-53
2020/12/07 00:42:32;;;;;;;3.75;2.47;;;205.70;1792.00;;;;;;5072524;28;20024;-54
2020/12/07 00:44:57;;;;;;;3.47;2.30;;;205.60;1817.60;;;;;;5072952;28;20430;-54
2020/12/07 00:47:23;;;;;;;5.03;2.65;;;205.60;1817.60;;;;;;5073264;28;20029;-54
2020/12/07 00:49:49;;;;;;;3.40;2.60;;;205.60;1792.00;;;;;;5072566;28;20055;-54
2020/12/07 00:52:14;;;;;;;3.88;2.78;;;205.70;1792.00;;;;;;5072168;28;20028;-54
2020/12/07 00:54:40;;;;;;;3.00;2.45;;;205.70;1817.60;;;;;;5071470;28;20028;-53
2020/12/07 00:57:06;;;;;;;4.43;2.67;;;205.60;1817.60;;;;;;5072258;28;20454;-54
2020/12/07 00:59:32;;;;;;;4.35;3.00;;;205.70;1817.60;;;;;;5073070;28;20036;-53
2020/12/07 01:01:58;;;;;;;2.75;2.15;;;205.60;1792.00;;;;;;5072854;28;20406;-53
2020/12/07 01:04:24;;;;;;;3.92;2.22;;;205.60;1792.00;;;;;;5072254;28;20068;-53
2020/12/07 01:06:50;;;;;;;5.25;2.50;;;205.60;1817.60;;;;;;5072593;28;20434;-54
2020/12/07 01:09:17;;;;;;;5.30;3.03;;;205.70;1792.00;;;;;;5072575;28;20052;-53
2020/12/07 01:11:46;;;;;;;6.63;2.47;;;205.70;1817.60;;;;;;5072467;28;20044;-53
2020/12/07 01:14:13;;;;;;;3.75;2.35;;;205.60;1792.00;;;;;;5070596;28;20029;-53
2020/12/07 01:16:43;;;;;;;3.75;2.75;;;205.60;1792.00;;;;;;5072393;28;20060;-53
2020/12/07 01:19:09;;;;;;;3.20;2.30;;;230.40;1792.00;;;;;;5072188;28;20050;-53
2020/12/07 01:21:35;;;;;;;3.30;2.55;;;230.50;1792.00;;;;;;5072320;28;20028;-53
2020/12/07 01:24:02;;;;;;;5.57;2.50;;;230.50;1766.40;;;;;;5072453;28;20060;-53
2020/12/07 01:26:30;;;;;;;4.30;2.08;;;230.60;1766.40;;;;;;5071639;28;20226;-57
2020/12/07 01:28:58;;;;;;;7.85;2.28;;;230.70;1766.40;;;;;;5072418;28;20165;-56
2020/12/07 01:31:24;;;;;;;4.18;1.90;;;230.40;1766.40;;;;;;5072472;28;20039;-54
2020/12/07 01:33:50;;;;;;;3.25;2.13;;;230.40;1740.80;;;;;;5072405;28;20471;-59
2020/12/07 01:36:16;;;;;;;4.70;2.58;;;205.70;1766.40;;;;;;5072161;28;20099;-57
2020/12/07 01:38:42;;;;;;;4.50;1.98;;;205.50;1792.00;;;;;;5072418;28;20067;-58
2020/12/07 01:41:08;;;;;;;5.05;2.25;;;205.40;1792.00;;;;;;5072336;28;20478;-57
2020/12/07 01:43:33;;;;;;;5.35;3.42;;;205.40;1792.00;;;;;;5072511;28;20056;-58
2020/12/07 01:45:59;;;;;;;4.45;2.03;;;205.30;1817.60;;;;;;5072240;28;20032;-58
2020/12/07 01:48:26;;;;;;;5.07;2.72;;;205.20;1817.60;;;;;;5072081;28;20071;-58
2020/12/07 01:50:53;;;;;;;5.80;2.35;;;205.20;1817.60;;;;;;5071364;28;20368;-57
2020/12/07 01:53:22;;;;;;;3.75;2.47;;;205.10;1843.20;;;;;;5071961;28;20474;-57
2020/12/07 01:55:49;;;;;;;3.85;2.50;;;205.10;1843.20;;;;;;5071614;28;20034;-58
2020/12/07 01:58:15;;;;;;;5.90;2.88;;;205.10;2022.40;;;;;;5071820;28;20025;-57
2020/12/07 02:00:41;;;;;;;6.53;2.50;;;205.00;1843.20;;;;;;5071444;28;20051;-58
2020/12/07 02:03:09;;;;;;;3.65;2.35;;;205.00;1843.20;;;;;;5072054;28;20037;-58
2020/12/07 02:05:38;;;;;;;6.32;2.42;;;204.90;1843.20;;;;;;5071664;28;20489;-59
2020/12/07 02:08:19;;;;;;;4.07;1.95;;;204.90;1843.20;;;;;;5071712;28;20029;-59
2020/12/07 02:10:45;;;;;;;3.92;2.17;;;205.00;1843.20;;;;;;5069860;28;20424;-59
2020/12/07 02:13:12;;;;;;;6.85;2.33;;;204.90;1843.20;;;;;;5072079;28;20020;-59
2020/12/07 02:15:38;;;;;;;3.55;1.85;;;204.80;1868.80;;;;;;5072078;28;20032;-59
2020/12/07 02:18:05;;;;;;;3.25;2.05;;;204.80;1843.20;;;;;;5072060;28;20024;-59
2020/12/07 02:20:31;;;;;;;3.17;1.95;;;204.80;1843.20;;;;;;5071719;28;20071;-59
2020/12/07 02:22:57;;;;;;;4.35;2.03;;;204.80;1843.20;;;;;;5071793;28;20021;-59
2020/12/07 02:25:23;;;;;;;4.25;1.80;;;204.80;1868.80;;;;;;5071931;28;20482;-59
2020/12/07 02:27:53;;;;;;;2.60;1.92;;;204.80;1868.80;;;;;;5071544;28;20104;-60
2020/12/07 02:30:21;;;;;;;4.53;2.20;;;204.80;1843.20;;;;;;5071817;28;20036;-60
2020/12/07 02:32:47;;;;;;;2.58;1.95;;;204.80;1843.20;;;;;;5071149;28;20074;-58
2020/12/07 02:35:14;;;;;;;4.63;1.55;;;180.10;1843.20;;;;;;5071463;28;20039;-59
2020/12/07 02:37:43;;;;;;;3.10;1.63;;;180.10;1868.80;;;;;;5071711;28;20036;-59
2020/12/07 02:40:10;;;;;;;2.33;1.70;;;180.10;1868.80;;;;;;5073796;28;20497;-59
2020/12/07 02:42:37;;;;;;;2.67;2.03;;;180.10;1868.80;;;;;;5074578;28;20398;-58
2020/12/07 02:45:11;;;;;;;1.73;1.45;;;180.10;1868.80;;;;;;5059310;28;20425;-59
2020/12/07 02:47:38;;;;;;;2.42;1.52;;;180.10;1868.80;;;;;;5075214;28;20062;-60
2020/12/07 02:50:05;;;;;;;3.83;2.33;;;180.10;1868.80;;;;;;5075499;28;20033;-59
2020/12/07 02:52:32;;;;;;;4.50;1.67;;;180.10;1868.80;;;;;;5074935;28;20021;-59
2020/12/07 02:54:59;;;;;;;2.08;1.70;;;180.10;1868.80;;;;;;5074929;28;20028;-58
2020/12/07 02:57:26;;;;;;;3.60;1.73;;;180.10;1868.80;;;;;;5074909;28;20371;-59
2020/12/07 02:59:52;;;;;;;3.03;1.52;;;180.10;1868.80;;;;;;5074981;28;20534;-60
2020/12/07 03:02:18;;;;;;;3.13;1.88;;;180.10;1868.80;;;;;;5075169;28;20422;-59
2020/12/07 03:04:44;;;;;;;3.90;1.77;;;204.80;1843.20;;;;;;5074767;28;20057;-61
2020/12/07 03:07:10;;;;;;;3.17;1.80;;;180.10;1868.80;;;;;;5074684;28;20347;-60
2020/12/07 03:09:35;;;;;;;2.58;1.98;;;204.80;1843.20;;;;;;5073550;28;20016;-58
2020/12/07 03:12:01;;;;;;;4.47;1.95;;;204.90;1843.20;;;;;;5074593;28;20029;-60
2020/12/07 03:14:27;;;;;;;2.13;1.73;;;204.80;1843.20;;;;;;5074579;28;20021;-60
2020/12/07 03:16:53;;;;;;;2.65;1.70;;;204.80;1843.20;;;;;;5074822;28;20373;-59
2020/12/07 03:19:19;;;;;;;5.07;1.83;;;204.80;1868.80;;;;;;5074784;28;20024;-60
2020/12/07 03:21:45;;;;;;;2.45;1.60;;;180.10;1868.80;;;;;;5074224;28;20020;-60
2020/12/07 03:24:11;;;;;;;5.55;2.60;;;204.80;1868.80;;;;;;5074309;28;20032;-60
2020/12/07 03:26:37;;;;;;;3.95;1.90;;;204.80;1843.20;;;;;;5074173;28;20030;-59
2020/12/07 03:29:03;;;;;;;3.05;2.35;;;180.10;1868.80;;;;;;5074452;28;20025;-60
2020/12/07 03:31:30;;;;;;;2.70;2.15;;;180.10;1868.80;;;;;;5074516;28;20028;-59
2020/12/07 03:33:57;;;;;;;2.85;1.80;;;180.10;1868.80;;;;;;5074364;28;20031;-59
2020/12/07 03:36:22;;;;;;;5.28;1.80;;;180.10;1868.80;;;;;;5073172;28;20028;-59
2020/12/07 03:38:48;;;;;;;3.08;2.30;;;180.10;1868.80;;;;;;5071922;28;20062;-60
2020/12/07 03:41:14;;;;;;;3.08;2.00;;;180.10;1868.80;;;;;;5074105;28;20058;-58
2020/12/07 03:43:40;;;;;;;3.05;1.98;;;180.10;1868.80;;;;;;5074005;28;20025;-60
2020/12/07 03:46:05;;;;;;;3.03;2.22;;;180.10;1868.80;;;;;;5073933;28;20039;-59
2020/12/07 03:48:31;;;;;;;4.15;1.77;;;180.10;1868.80;;;;;;5074727;28;20458;-60
2020/12/07 03:50:57;;;;;;;5.57;3.03;;;180.10;1868.80;;;;;;5073358;28;20067;-59
2020/12/07 03:53:22;;;;;;;4.18;2.17;;;180.00;1868.80;;;;;;5073602;28;20013;-59
2020/12/07 03:55:48;;;;;;;5.32;2.10;;;180.00;1894.40;;;;;;5073728;28;20028;-60
2020/12/07 03:58:14;;;;;;;4.05;2.60;;;180.00;1894.40;;;;;;5073595;28;20021;-60
2020/12/07 04:00:39;;;;;;;4.38;2.35;;;180.10;1868.80;;;;;;5073999;28;20024;-59
2020/12/07 04:03:08;;;;;;;3.83;2.22;;;180.00;1894.40;;;;;;5073658;28;20058;-59
2020/12/07 04:05:38;;;;;;;4.95;2.33;;;180.00;1868.80;;;;;;5073378;28;20040;-59
2020/12/07 04:08:04;;;;;;;4.40;2.58;;;180.10;1868.80;;;;;;5072313;28;20119;-59
2020/12/07 04:10:30;;;;;;;3.17;2.33;;;180.00;1894.40;;;;;;5073402;28;20052;-59
2020/12/07 04:12:55;;;;;;;4.20;2.30;;;180.00;1894.40;;;;;;5072031;28;20422;-59
2020/12/07 04:15:21;;;;;;;3.47;2.42;;;180.00;1894.40;;;;;;5073252;28;20036;-60
2020/12/07 04:17:47;;;;;;;4.28;2.47;;;180.00;1868.80;;;;;;5073378;28;20099;-59
2020/12/07 04:20:12;;;;;;;4.40;2.65;;;180.10;1868.80;;;;;;5073539;28;20074;-60
2020/12/07 04:22:38;;;;;;;4.85;2.17;;;180.10;1868.80;;;;;;5072979;28;20043;-60
2020/12/07 04:25:04;;;;;;;3.65;2.25;;;180.00;1894.40;;;;;;5055136;28;20032;-60
2020/12/07 04:27:30;;;;;;;4.15;2.85;;;180.00;1894.40;;;;;;5073289;28;20052;-59
2020/12/07 04:29:56;;;;;;;4.45;2.20;;;180.00;1894.40;;;;;;5073082;28;20048;-59
2020/12/07 04:32:21;;;;;;;3.28;2.22;;;180.00;1894.40;;;;;;5073194;28;20107;-60
2020/12/07 04:34:47;;;;;;;3.70;2.47;;;180.00;1894.40;;;;;;5073260;28;20426;-60
2020/12/07 04:37:13;;;;;;;3.92;2.30;;;180.00;1894.40;;;;;;5072971;28;20573;-59
2020/12/07 04:39:38;;;;;;;3.53;2.35;;;180.00;1894.40;;;;;;5073089;28;20105;-60
2020/12/07 04:42:05;;;;;;;3.28;2.85;;;180.00;1894.40;;;;;;5072774;28;20359;-60
2020/12/07 04:44:31;;;;;;;2.90;2.47;;;180.10;1868.80;;;;;;5072676;28;20040;-60
2020/12/07 04:46:59;;;;;;;3.47;2.58;;;180.00;1894.40;;;;;;5072522;28;20452;-59
2020/12/07 04:49:30;;;;;;;3.45;2.28;;;180.00;1868.80;;;;;;5073109;28;20052;-58
2020/12/07 04:51:56;;;;;;;3.60;2.58;;;180.10;1868.80;;;;;;5072643;28;20028;-59
2020/12/07 04:54:27;;;;;;;4.00;2.40;;;180.10;1868.80;;;;;;5072492;28;20019;-58
2020/12/07 04:56:56;;;;;;;2.58;2.00;;;180.10;1843.20;;;;;;5072708;28;20082;-59
2020/12/07 04:59:23;;;;;;;3.00;2.28;;;180.10;1843.20;;;;;;5054641;28;20070;-59
2020/12/07 05:01:50;;;;;;;3.75;1.80;;;180.10;1843.20;;;;;;5053787;28;20033;-58
2020/12/07 05:04:15;;;;;;;6.15;2.90;;;180.10;1843.20;;;;;;5072434;28;20187;-61
2020/12/07 05:06:41;;;;;;;3.58;2.20;;;204.80;1843.20;;;;;;5072507;28;20099;-59
2020/12/07 05:09:08;;;;;;;3.17;1.95;;;204.80;1817.60;;;;;;5072652;28;20052;-59
2020/12/07 05:11:34;;;;;;;3.97;2.17;;;180.10;1817.60;;;;;;5072539;28;20020;-60
2020/12/07 05:14:09;;;;;;;5.32;2.25;;;180.10;1817.60;;;;;;5072505;28;20467;-59
2020/12/07 05:16:35;;;;;;;3.88;1.80;;;180.10;1843.20;;;;;;5054294;28;20036;-59
2020/12/07 05:19:01;;;;;;;3.00;2.28;;;180.10;1817.60;;;;;;5072776;28;20028;-60
2020/12/07 05:21:27;;;;;;;2.53;2.10;;;204.80;1817.60;;;;;;5072214;28;20024;-58
2020/12/07 05:23:53;;;;;;;4.95;2.20;;;180.10;1843.20;;;;;;5072418;28;20367;-59
2020/12/07 05:26:21;;;;;;;4.20;2.70;;;204.80;1817.60;;;;;;5072260;28;20025;-58
2020/12/07 05:28:52;;;;;;;2.97;1.88;;;204.80;1817.60;;;;;;5072178;28;20028;-59
2020/12/07 05:31:20;;;;;;;3.22;2.13;;;204.90;1817.60;;;;;;5070931;28;20016;-58
2020/12/07 05:33:47;;;;;;;3.67;2.22;;;204.90;1817.60;;;;;;5072366;28;20563;-58
2020/12/07 05:36:17;;;;;;;4.90;2.25;;;204.90;1817.60;;;;;;5072351;28;20019;-60
2020/12/07 05:38:44;;;;;;;4.85;2.17;;;204.90;1817.60;;;;;;5072067;28;20024;-59
2020/12/07 05:41:10;;;;;;;3.30;2.38;;;205.00;1792.00;;;;;;5072229;28;20025;-59
2020/12/07 05:43:37;;;;;;;3.35;2.08;;;204.90;1817.60;;;;;;5072086;28;20505;-60
2020/12/07 05:46:05;;;;;;;4.15;2.25;;;204.90;1792.00;;;;;;5072186;28;20039;-60
2020/12/07 05:48:33;;;;;;;3.70;2.35;;;204.90;1817.60;;;;;;5071944;28;20017;-57
2020/12/07 05:51:04;;;;;;;3.63;2.33;;;204.90;1792.00;;;;;;5072218;28;20056;-59
2020/12/07 05:53:38;;;;;;;3.20;2.50;;;205.00;1792.00;;;;;;5071994;28;20262;-59
2020/12/07 05:56:08;;;;;;;5.32;2.22;;;180.10;1817.60;;;;;;5071945;28;20451;-60
2020/12/07 05:58:47;;;;;;;5.05;2.00;;;180.10;1817.60;;;;;;5072032;28;20040;-59
2020/12/07 06:01:16;;;;;;;3.25;2.45;;;204.80;1817.60;;;;;;5071527;28;20048;-59
2020/12/07 06:03:42;;;;;;;5.15;2.55;;;180.10;1817.60;;;;;;5071831;28;20056;-59
2020/12/07 06:06:08;;;;;;;5.80;2.72;;;180.10;1817.60;;;;;;5071291;28;20044;-58
2020/12/07 06:08:36;;;;;;;4.10;2.38;;;180.10;1817.60;;;;;;5072194;28;20489;-59
2020/12/07 06:11:06;;;;;;;5.28;1.98;;;204.80;1817.60;;;;;;5054015;28;20024;-58
2020/12/07 06:13:33;;;;;;;3.40;2.28;;;204.90;1792.00;;;;;;5073637;28;20039;-58
2020/12/07 06:16:04;;;;;;;4.55;2.70;;;204.90;1792.00;;;;;;5075058;28;20035;-60
2020/12/07 06:18:32;;;;;;;4.03;2.63;;;204.90;1817.60;;;;;;5075777;28;20493;-57
2020/12/07 06:21:04;;;;;;;5.07;2.85;;;204.90;1817.60;;;;;;5075433;28;20058;-58
2020/12/07 06:23:36;;;;;;;5.97;2.53;;;204.80;1817.60;;;;;;5073837;28;20042;-58
2020/12/07 06:26:05;;;;;;;5.40;2.88;;;204.90;1817.60;;;;;;5075330;28;20472;-58
2020/12/07 06:28:32;;;;;;;7.93;3.35;;;204.90;1817.60;;;;;;5075683;28;20035;-58
2020/12/07 06:31:15;;;;;;;6.93;2.95;;;205.00;1792.00;;;;;;5075213;28;20086;-57
2020/12/07 06:33:48;;;;;;;5.50;2.83;;;204.90;1792.00;;;;;;5075282;28;20447;-58
2020/12/07 06:36:30;;;;;;;4.40;2.65;;;204.90;1792.00;;;;;;5072801;28;20013;-58
2020/12/07 06:39:04;;;;;;;4.03;2.45;;;205.00;1792.00;;;;;;5075313;28;20042;-58
2020/12/07 06:41:37;;;;;;;5.72;3.05;;;205.00;1792.00;;;;;;5075181;28;20104;-58
2020/12/07 06:44:06;;;;;;;7.28;3.35;;;205.10;1766.40;;;;;;5075707;28;20032;-58
2020/12/07 06:52:24;;;;;;;4.82;2.78;;;205.20;1766.40;;;;;;5074786;28;20455;-56
2020/12/07 06:57:31;;;;;;;3.92;2.42;;;205.10;1766.40;;;;;;5069611;28;20131;-57
2020/12/07 07:00:00;;;;;;;4.53;2.60;;;205.20;1792.00;;;;;;5074988;28;20123;-58
2020/12/07 07:02:26;;;;;;;5.13;2.20;;;205.30;1766.40;;;;;;5073549;28;20069;-58
2020/12/07 07:04:53;;;;;;;3.75;2.55;;;205.20;1766.40;;;;;;5073772;28;20422;-57
2020/12/07 07:07:24;;;;;;;3.33;2.30;;;205.10;1766.40;;;;;;5073662;28;20111;-59
2020/12/07 07:09:50;;;;;;;5.00;2.53;;;205.10;1766.40;;;;;;5073413;28;20090;-58
2020/12/07 07:12:17;;;;;;;5.60;2.60;;;205.20;1740.80;;;;;;5073951;28;20044;-58
2020/12/07 07:14:45;;;;;;;4.10;2.20;;;205.30;1740.80;;;;;;5074113;28;20032;-60
2020/12/07 07:17:10;;;;;;;3.97;2.60;;;205.20;1740.80;;;;;;5073899;28;20019;-60
2020/12/07 07:19:36;;;;;;;3.13;2.22;;;205.30;1740.80;;;;;;5073853;28;20479;-59
2020/12/07 07:22:02;;;;;;;5.18;2.30;;;205.40;1740.80;;;;;;5073534;28;20439;-56
2020/12/07 07:24:36;;;;;;;3.13;1.98;;;205.10;1740.80;;;;;;5072505;28;20048;-58
2020/12/07 07:27:57;;;;;;;1.83;1.50;;;205.00;1740.80;;;;;;5072180;28;20112;-58
2020/12/07 07:29:50;;;;;;;2.22;1.75;;;205.10;1740.80;;;;;;5073357;28;20367;-58
2020/12/07 07:32:17;;;;;;;4.03;1.92;;;205.20;1740.80;;;;;;5071967;28;20035;-59
2020/12/07 07:34:47;;;;;;;3.20;2.15;;;205.20;1715.20;;;;;;5074129;28;20427;-60
2020/12/07 07:37:13;;;;;;;4.90;2.25;;;205.20;1715.20;;;;;;5074091;28;20483;-59
2020/12/07 07:39:39;;;;;;;3.17;2.13;;;205.20;1715.20;;;;;;5073903;28;20028;-58
2020/12/07 07:42:13;;;;;;;3.38;1.67;;;205.30;1715.20;;;;;;5073465;28;20024;-57
2020/12/07 07:44:41;;;;;;;3.60;2.40;;;205.40;1689.60;;;;;;5073756;28;20025;-58
2020/12/07 07:47:12;;;;;;;7.15;2.55;;;205.40;1689.60;;;;;;5072541;28;20020;-58
2020/12/07 07:53:37;;;;;;;3.22;2.30;;;205.50;1664.00;;;;;;5073678;28;20019;-58
2020/12/07 08:17:53;;;;;;;7.38;2.72;;;230.90;1587.20;;;;;;5036849;28;20048;-56
2020/12/07 08:20:22;;;;;;;3.63;2.20;;;230.80;1587.20;;;;;;5040445;28;20041;-57
2020/12/07 08:22:57;;;;;;;;;;;231.00;1740.80;;;;;;5038244;28;20074;-56
2020/12/07 08:25:49;;;;;;;6.25;2.47;;;231.00;1561.60;;;;;;5030404;28;19913;-57
2020/12/07 08:28:38;;;;;;;11.63;3.75;;;230.90;1561.60;;;;;;5037708;28;20067;-59
2020/12/07 08:31:05;;;;;;;4.38;2.05;;;230.90;1536.00;;;;;;5039649;28;20507;-58
2020/12/07 08:33:36;;;;;;;5.25;2.30;;;230.90;1536.00;;;;;;5037839;28;20121;-57
2020/12/07 08:36:04;;;;;;;7.13;2.53;;;231.00;1536.00;;;;;;5042488;28;20029;-57
2020/12/07 08:38:39;;;;;;;5.25;2.50;;;230.80;1561.60;;;;;;5030955;28;20064;-56
2020/12/07 08:41:28;;;;;;;4.90;2.78;;;230.90;1536.00;;;;;;5061055;28;20490;-57
2020/12/07 08:43:57;;;;;;;3.28;2.30;;;230.80;1561.60;;;;;;5070921;28;20047;-57
2020/12/07 08:46:24;;;;;;;6.10;2.83;;;230.80;1561.60;;;;;;5072264;28;20094;-56
2020/12/07 08:48:50;;;;;;;3.70;2.40;;;230.90;1561.60;;;;;;5072701;28;20021;-57
2020/12/07 08:51:20;;;;;;;8.48;2.80;;;230.90;1561.60;;;;;;5072678;28;20074;-56
2020/12/07 08:53:45;;;;;;;6.95;2.40;;;230.80;1561.60;;;;;;5072630;28;20025;-56
2020/12/07 08:56:11;;;;;;;5.50;2.75;;;230.80;1561.60;;;;;;5071732;28;20042;-53
2020/12/07 08:58:38;;;;;;;6.97;2.92;;;230.80;1561.60;;;;;;5072691;28;20029;-56
2020/12/07 09:01:08;;;;;;;4.40;2.17;;;230.80;1561.60;;;;;;5072645;28;20517;-56
2020/12/07 09:03:35;;;;;;;5.55;2.78;;;230.80;1561.60;;;;;;5072687;28;20110;-57
2020/12/07 09:06:03;;;;;;;5.20;2.60;;;230.80;1561.60;;;;;;5072112;28;20056;-57
2020/12/07 09:08:29;;;;;;;4.47;2.85;;;230.80;1561.60;;;;;;5072877;28;20376;-56
2020/12/07 09:10:55;;;;;;;3.10;2.10;;;230.80;1561.60;;;;;;5072665;28;20037;-58
2020/12/07 09:13:22;;;;;;;6.53;2.47;;;230.90;1561.60;;;;;;5055067;28;20020;-57
2020/12/07 09:15:48;;;;;;;5.35;2.80;;;230.90;1536.00;;;;;;5072425;28;20042;-57
2020/12/07 09:18:14;;;;;;;5.88;2.90;;;231.10;1536.00;;;;;;5071916;28;20461;-57
2020/12/07 09:20:39;;;;;;;5.68;3.15;;;231.20;1510.40;;;;;;5072515;28;20107;-56
2020/12/07 09:23:05;;;;;;;5.30;2.83;;;231.30;1510.40;;;;;;5072303;28;20071;-57
2020/12/07 09:25:31;;;;;;;4.60;2.53;;;231.10;1510.40;;;;;;5072220;28;20032;-56
2020/12/07 09:27:56;;;;;;;4.15;2.35;;;231.10;1536.00;;;;;;5072892;28;20021;-56
2020/12/07 09:30:22;;;;;;;4.68;2.45;;;231.00;1510.40;;;;;;5072533;28;20028;-56
2020/12/07 09:32:48;;;;;;;4.35;2.83;;;231.10;1510.40;;;;;;5072196;28;20024;-55
2020/12/07 09:35:14;;;;;;;3.38;1.88;;;231.10;1510.40;;;;;;5071615;28;20098;-58
2020/12/07 09:37:40;;;;;;;4.97;2.72;;;231.10;1510.40;;;;;;5071987;28;20044;-57
2020/12/07 09:40:07;;;;;;;6.32;2.50;;;231.10;1510.40;;;;;;5072184;28;20020;-56
2020/12/07 09:42:33;;;;;;;6.72;3.10;;;231.30;1484.80;;;;;;5071434;28;20494;-58
2020/12/07 09:44:59;;;;;;;5.07;2.40;;;256.10;1484.80;;;;;;5070660;28;20471;-57
2020/12/07 09:47:26;;;;;;;5.60;2.45;;;231.10;1536.00;;;;;;5071120;28;20446;-57
2020/12/07 09:49:52;;;;;;;3.63;2.25;;;231.10;1536.00;;;;;;5074279;28;20064;-57
2020/12/07 09:52:18;;;;;;;4.07;2.70;;;231.30;1536.00;;;;;;5073721;28;20048;-57
2020/12/07 09:54:46;;;;;;;4.20;2.13;;;256.00;1510.40;;;;;;5075269;28;20167;-57
2020/12/07 09:57:12;;;;;;;6.25;3.42;;;256.00;1510.40;;;;;;5075356;28;20024;-57
2020/12/07 09:59:37;;;;;;;9.15;5.43;;;256.10;1510.40;;;;;;5075836;28;20043;-58
2020/12/07 10:02:03;;;;;;;7.53;5.07;;;231.30;1536.00;;;;;;5076172;28;20488;-57
2020/12/07 10:04:29;;;;;;;6.60;4.65;;;231.30;1536.00;;;;;;5057831;28;20453;-57
2020/12/07 10:06:55;;;;;;;5.88;3.60;;;231.30;1561.60;;;;;;5057770;28;20352;-58
2020/12/07 10:09:21;;;;;;;7.95;3.80;;;231.20;1587.20;;;;;;5069044;28;20104;-63
2020/12/07 10:11:48;;;;;;;4.57;2.67;;;256.00;1587.20;;;;;;5072356;28;20482;-61
2020/12/07 10:14:14;;;;;;;5.53;3.00;;;256.10;1561.60;;;;;;5074723;28;20063;-60
2020/12/07 10:16:44;;;;;;;5.35;2.55;;;256.10;1587.20;;;;;;5073321;28;20071;-60
2020/12/07 10:19:10;;;;;;;4.15;2.22;;;256.00;1587.20;;;;;;5056038;28;20428;-59
2020/12/07 10:21:40;;;;;;;3.60;2.22;;;256.10;1587.20;;;;;;5073008;28;20067;-60
2020/12/07 10:24:06;;;;;;;5.13;2.83;;;231.30;1587.20;;;;;;5073656;28;20056;-60
2020/12/07 10:26:33;;;;;;;5.65;3.17;;;256.00;1587.20;;;;;;5072964;28;20363;-61
2020/12/07 10:28:59;;;;;;;4.97;3.17;;;231.30;1612.80;;;;;;5038560;28;20045;-60
2020/12/07 10:31:25;;;;;;;4.85;3.42;;;231.10;1612.80;;;;;;5073220;28;20343;-58
2020/12/07 10:33:52;;;;;;;8.50;3.20;;;256.00;1612.80;;;;;;5072441;28;20529;-60
2020/12/07 10:36:19;;;;;;;4.82;2.53;;;256.00;1638.40;;;;;;5073113;28;20056;-60
2020/12/07 10:38:46;;;;;;;6.38;2.83;;;256.20;1612.80;;;;;;5070450;28;20048;-59
2020/12/07 10:41:16;;;;;;;8.18;3.88;;;231.30;1689.60;;;;;;5072782;28;20485;-58
2020/12/07 10:43:43;;;;;;;5.13;2.80;;;256.00;1689.60;;;;;;5072201;28;20032;-60
2020/12/07 10:46:11;;;;;;;6.50;3.88;;;231.30;1689.60;;;;;;5071751;28;20491;-60
2020/12/07 10:48:38;;;;;;;5.43;3.70;;;256.00;1638.40;;;;;;5071704;28;20021;-60
2020/12/07 10:51:03;;;;;;;7.97;3.88;;;256.10;1638.40;;;;;;5070162;28;20604;-60
2020/12/07 10:53:29;;;;;;;6.88;3.33;;;256.10;1638.40;;;;;;5071757;28;20283;-58
2020/12/07 10:55:55;;;;;;;5.78;2.97;;;256.10;1638.40;;;;;;5070842;28;20470;-60
2020/12/07 10:58:21;;;;;;;6.40;3.20;;;231.20;1664.00;;;;;;5071607;28;20021;-59
2020/12/07 11:00:48;;;;;;;8.95;3.05;;;256.10;1638.40;;;;;;5071064;28;20504;-60
2020/12/07 11:03:14;;;;;;;6.90;3.38;;;256.00;1638.40;;;;;;5070478;28;20028;-59
2020/12/07 11:05:41;;;;;;;5.78;2.90;;;231.20;1664.00;;;;;;5071611;28;20045;-59
2020/12/07 11:08:19;;;;;;;7.07;4.28;;;256.00;1638.40;;;;;;5071664;28;20500;-60
2020/12/07 11:10:45;;;;;;;7.07;3.30;;;256.00;1664.00;;;;;;5071219;28;21195;-60
2020/12/07 11:13:20;;;;;;;5.97;3.00;;;231.20;1664.00;;;;;;5069003;28;20031;-60
2020/12/07 11:15:46;;;;;;;5.80;2.53;;;231.20;1638.40;;;;;;5070795;28;20462;-63
2020/12/07 11:18:12;;;;;;;4.35;2.90;;;256.00;1638.40;;;;;;5070857;28;20066;-60
2020/12/07 11:20:37;;;;;;;4.70;3.00;;;256.10;1638.40;;;;;;5069473;28;20485;-61
2020/12/07 11:23:03;;;;;;;4.85;2.33;;;256.00;1664.00;;;;;;5071689;28;20438;-60
2020/12/07 11:25:29;;;;;;;3.97;2.60;;;231.30;1638.40;;;;;;5053473;28;20493;-60
2020/12/07 11:27:54;;;;;;;4.63;2.40;;;231.30;1638.40;;;;;;5070855;28;20017;-57
2020/12/07 11:30:20;;;;;;;4.55;2.92;;;256.00;1638.40;;;;;;5071214;28;20032;-58
2020/12/07 11:32:46;;;;;;;5.07;2.65;;;256.10;1612.80;;;;;;5053642;28;20462;-59
2020/12/07 11:35:11;;;;;;;5.80;3.60;;;256.10;1612.80;;;;;;5072051;28;20347;-58
2020/12/07 11:37:39;;;;;;;4.30;2.63;;;231.20;1664.00;;;;;;5070261;28;20079;-58
2020/12/07 11:40:13;;;;;;;6.72;3.35;;;231.10;1689.60;;;;;;5070777;28;20458;-58
2020/12/07 11:42:51;;;;;;;5.93;2.88;;;231.20;1689.60;;;;;;5071230;28;20064;-58
2020/12/07 11:45:17;;;;;;;6.40;3.10;;;231.10;1664.00;;;;;;5071229;28;20359;-58
2020/12/07 11:47:43;;;;;;;7.00;2.88;;;231.20;1664.00;;;;;;5070940;28;20031;-58
2020/12/07 11:50:08;;;;;;;6.22;2.58;;;256.00;1664.00;;;;;;5070903;28;20036;-59
2020/12/07 11:52:34;;;;;;;5.65;2.50;;;231.30;1638.40;;;;;;5071490;28;20091;-60
2020/12/07 11:55:00;;;;;;;3.38;2.65;;;231.20;1664.00;;;;;;5072123;28;20025;-60
2020/12/07 11:57:25;;;;;;;5.25;2.38;;;231.30;1638.40;;;;;;5071336;28;20023;-58
2020/12/07 11:59:51;;;;;;;4.72;2.30;;;256.10;1638.40;;;;;;5071486;28;20032;-58
2020/12/07 12:02:17;;;;;;;5.97;3.50;;;231.30;1664.00;;;;;;5071297;28;20513;-58
2020/12/07 12:04:42;;;;;;;5.35;2.97;;;231.20;1664.00;;;;;;5070260;28;20071;-57
2020/12/07 12:07:08;;;;;;;7.05;3.85;;;231.10;1689.60;;;;;;5070987;28;20059;-58
2020/12/07 12:09:37;;;;;;;7.65;4.40;;;231.10;1664.00;;;;;;5070558;28;20047;-59
2020/12/07 12:12:04;;;;;;;4.88;2.80;;;231.20;1689.60;;;;;;5068769;28;20392;-59
2020/12/07 12:14:29;;;;;;;5.85;3.05;;;231.10;1689.60;;;;;;5070507;28;20028;-59
2020/12/07 12:16:56;;;;;;;5.47;3.13;;;231.10;1664.00;;;;;;5070524;28;20028;-59
2020/12/07 12:19:22;;;;;;;5.18;3.22;;;231.10;1664.00;;;;;;5071137;28;20463;-58
2020/12/07 12:21:47;;;;;;;5.18;3.53;;;231.10;1664.00;;;;;;5070677;28;20028;-59
2020/12/07 12:24:13;;;;;;;4.97;3.20;;;230.90;1664.00;;;;;;5070927;28;20098;-59
2020/12/07 12:26:40;;;;;;;6.68;4.03;;;230.90;1689.60;;;;;;5071280;28;20020;-59
2020/12/07 12:29:06;;;;;;;6.63;4.30;;;230.80;1715.20;;;;;;5071110;28;20382;-58
2020/12/07 12:31:33;;;;;;;6.97;4.22;;;230.80;1689.60;;;;;;5071489;28;20031;-58
2020/12/07 12:33:59;;;;;;;6.10;3.80;;;230.70;1715.20;;;;;;5071021;28;20120;-58
2020/12/07 12:36:27;;;;;;;6.40;3.78;;;230.70;1715.20;;;;;;5071111;28;20474;-59
2020/12/07 12:38:53;;;;;;;6.13;3.97;;;230.70;1740.80;;;;;;5070490;28;20399;-60
2020/12/07 12:41:19;;;;;;;7.70;4.57;;;230.70;1740.80;;;;;;5052608;28;20021;-58
2020/12/07 12:43:45;;;;;;;7.85;3.63;;;230.70;1740.80;;;;;;5070389;28;20028;-59
2020/12/07 12:46:12;;;;;;;7.18;4.60;;;230.70;1740.80;;;;;;5070165;28;20055;-59
2020/12/07 12:48:38;;;;;;;7.60;3.95;;;230.50;1792.00;;;;;;5071068;28;20085;-60
2020/12/07 12:51:07;;;;;;;7.85;4.20;;;230.60;1766.40;;;;;;5070484;28;20103;-58
2020/12/07 12:53:33;;;;;;;7.25;3.97;;;230.50;1766.40;;;;;;5070957;28;20078;-58